sensor_id;sensor_type;location;lat;lon;timestamp;pressure;altitude;pressure_sealevel;temperature;humidity
59767;BME280;46248;58.364;25.582;2023-02-03T00:02:17;100319.59;;;-3.13;81.49
59767;BME280;46248;58.364;25.582;2023-02-03T00:05:40;100321.31;;;-3.08;84.25
59767;BME280;46248;58.364;25.582;2023-02-03T00:09:03;100324.69;;;-3.09;85.54
59767;BME280;46248;58.364;25.582;2023-02-03T00:12:24;100317.88;;;-3.11;87.22
59767;BME280;46248;58.364;25.582;2023-02-03T00:15:46;100328.13;;;-3.11;88.92
59767;BME280;46248;58.364;25.582;2023-02-03T00:19:08;100331.53;;;-3.14;90.23
59767;BME280;46248;58.364;25.582;2023-02-03T00:22:31;100328.97;;;-3.14;91.00
59767;BME280;46248;58.364;25.582;2023-02-03T00:25:53;100329.81;;;-3.18;91.82
59767;BME280;46248;58.364;25.582;2023-02-03T00:29:15;100334.06;;;-3.18;92.18
59767;BME280;46248;58.364;25.582;2023-02-03T00:32:38;100328.09;;;-3.27;92.74
59767;BME280;46248;58.364;25.582;2023-02-03T00:36:04;100333.25;;;-3.20;93.03
59767;BME280;46248;58.364;25.582;2023-02-03T00:39:27;100337.47;;;-3.21;93.42
59767;BME280;46248;58.364;25.582;2023-02-03T00:42:49;100331.53;;;-3.17;93.78
59767;BME280;46248;58.364;25.582;2023-02-03T00:46:12;100316.13;;;-3.28;94.03
59767;BME280;46248;58.364;25.582;2023-02-03T00:49:34;100319.56;;;-3.18;93.77
59767;BME280;46248;58.364;25.582;2023-02-03T00:52:55;100322.16;;;-3.16;94.07
59767;BME280;46248;58.364;25.582;2023-02-03T00:56:19;100311.88;;;-3.23;94.25
59767;BME280;46248;58.364;25.582;2023-02-03T00:59:41;100319.59;;;-3.16;94.37
59767;BME280;46248;58.364;25.582;2023-02-03T01:03:04;100313.59;;;-3.20;93.71
59767;BME280;46248;58.364;25.582;2023-02-03T01:06:26;100317.88;;;-3.16;94.50
59767;BME280;46248;58.364;25.582;2023-02-03T01:09:48;100321.28;;;-3.17;94.61
59767;BME280;46248;58.364;25.582;2023-02-03T01:13:11;100323.84;;;-3.20;94.19
59767;BME280;46248;58.364;25.582;2023-02-03T01:16:34;100328.97;;;-3.18;94.83
59767;BME280;46248;58.364;25.582;2023-02-03T01:19:57;100325.56;;;-3.20;94.60
59767;BME280;46248;58.364;25.582;2023-02-03T01:23:19;100323.84;;;-3.20;94.79
59767;BME280;46248;58.364;25.582;2023-02-03T01:26:41;100317.84;;;-3.25;94.47
59767;BME280;46248;58.364;25.582;2023-02-03T01:30:05;100325.56;;;-3.20;94.34
59767;BME280;46248;58.364;25.582;2023-02-03T01:33:27;100322.97;;;-3.22;93.88
59767;BME280;46248;58.364;25.582;2023-02-03T01:36:49;100319.56;;;-3.24;93.72
59767;BME280;46248;58.364;25.582;2023-02-03T01:40:11;100328.94;;;-3.22;92.76
59767;BME280;46248;58.364;25.582;2023-02-03T01:43:36;100329.81;;;-3.23;92.50
59767;BME280;46248;58.364;25.582;2023-02-03T01:47:00;100332.38;;;-3.21;92.23
59767;BME280;46248;58.364;25.582;2023-02-03T01:50:25;100324.66;;;-3.27;92.00
59767;BME280;46248;58.364;25.582;2023-02-03T01:53:49;100328.97;;;-3.26;90.72
59767;BME280;46248;58.364;25.582;2023-02-03T01:57:19;100332.38;;;-3.29;90.13
59767;BME280;46248;58.364;25.582;2023-02-03T02:00:42;100329.78;;;-3.30;88.84
59767;BME280;46248;58.364;25.582;2023-02-03T02:04:05;100334.06;;;-3.28;89.04
59767;BME280;46248;58.364;25.582;2023-02-03T02:07:29;100331.50;;;-3.28;88.19
59767;BME280;46248;58.364;25.582;2023-02-03T02:10:52;100325.53;;;-3.34;86.94
59767;BME280;46248;58.364;25.582;2023-02-03T02:14:14;100333.22;;;-3.30;86.51
59767;BME280;46248;58.364;25.582;2023-02-03T02:17:50;100324.69;;;-3.32;87.22
59767;BME280;46248;58.364;25.582;2023-02-03T02:21:41;100325.53;;;-3.33;84.92
59767;BME280;46248;58.364;25.582;2023-02-03T02:25:26;100314.44;;;-3.35;84.12
59767;BME280;46248;58.364;25.582;2023-02-03T02:29:05;100317.84;;;-3.31;85.04
59767;BME280;46248;58.364;25.582;2023-02-03T02:32:49;100319.56;;;-3.32;85.34
59767;BME280;46248;58.364;25.582;2023-02-03T02:36:22;100323.81;;;-3.34;85.49
59767;BME280;46248;58.364;25.582;2023-02-03T02:39:54;100323.81;;;-3.37;84.58
59767;BME280;46248;58.364;25.582;2023-02-03T02:43:20;100323.81;;;-3.35;85.87
59767;BME280;46248;58.364;25.582;2023-02-03T02:46:46;100334.06;;;-3.38;85.42
59767;BME280;46248;58.364;25.582;2023-02-03T02:50:15;100324.66;;;-3.36;85.93
59767;BME280;46248;58.364;25.582;2023-02-03T02:53:45;100318.69;;;-3.35;85.99
59767;BME280;46248;58.364;25.582;2023-02-03T02:57:10;100300.75;;;-3.43;84.43
59767;BME280;46248;58.364;25.582;2023-02-03T03:00:34;100318.69;;;-3.34;83.95
59767;BME280;46248;58.364;25.582;2023-02-03T03:03:57;100312.72;;;-3.34;83.22
59767;BME280;46248;58.364;25.582;2023-02-03T03:07:24;100319.53;;;-3.30;82.95
59767;BME280;46248;58.364;25.582;2023-02-03T03:10:49;100320.41;;;-3.34;83.66
59767;BME280;46248;58.364;25.582;2023-02-03T03:14:11;100328.94;;;-3.31;83.66
59767;BME280;46248;58.364;25.582;2023-02-03T03:17:39;100326.38;;;-3.34;81.35
59767;BME280;46248;58.364;25.582;2023-02-03T03:21:03;100317.81;;;-3.40;83.52
59767;BME280;46248;58.364;25.582;2023-02-03T03:24:30;100326.38;;;-3.34;84.14
59767;BME280;46248;58.364;25.582;2023-02-03T03:27:56;100332.34;;;-3.35;84.75
59767;BME280;46248;58.364;25.582;2023-02-03T03:31:19;100328.06;;;-3.39;85.07
59767;BME280;46248;58.364;25.582;2023-02-03T03:34:42;100326.34;;;-3.40;85.38
59767;BME280;46248;58.364;25.582;2023-02-03T03:38:10;100325.50;;;-3.42;86.47
59767;BME280;46248;58.364;25.582;2023-02-03T03:41:41;100336.59;;;-3.41;87.91
59767;BME280;46248;58.364;25.582;2023-02-03T03:45:09;100342.56;;;-3.42;88.55
59767;BME280;46248;58.364;25.582;2023-02-03T03:48:35;100336.59;;;-3.44;88.95
59767;BME280;46248;58.364;25.582;2023-02-03T03:52:00;100336.59;;;-3.44;89.58
59767;BME280;46248;58.364;25.582;2023-02-03T03:55:26;100341.69;;;-3.46;89.71
59767;BME280;46248;58.364;25.582;2023-02-03T03:58:51;100333.13;;;-3.51;90.17
59767;BME280;46248;58.364;25.582;2023-02-03T04:02:15;100323.75;;;-3.55;90.38
59767;BME280;46248;58.364;25.582;2023-02-03T04:05:39;100334.00;;;-3.49;90.62
59767;BME280;46248;58.364;25.582;2023-02-03T04:09:04;100335.72;;;-3.53;91.13
59767;BME280;46248;58.364;25.582;2023-02-03T04:12:26;100334.03;;;-3.51;90.82
59767;BME280;46248;58.364;25.582;2023-02-03T04:15:49;100338.25;;;-3.51;90.87
59767;BME280;46248;58.364;25.582;2023-02-03T04:19:11;100331.44;;;-3.52;91.35
59767;BME280;46248;58.364;25.582;2023-02-03T04:22:33;100338.28;;;-3.50;90.86
59767;BME280;46248;58.364;25.582;2023-02-03T04:25:54;100327.19;;;-3.52;91.07
59767;BME280;46248;58.364;25.582;2023-02-03T04:29:16;100334.88;;;-3.53;90.27
59767;BME280;46248;58.364;25.582;2023-02-03T04:32:39;100334.00;;;-3.54;90.00
59767;BME280;46248;58.364;25.582;2023-02-03T04:36:01;100332.28;;;-3.52;90.50
59767;BME280;46248;58.364;25.582;2023-02-03T04:39:23;100320.34;;;-3.53;90.28
59767;BME280;46248;58.364;25.582;2023-02-03T04:42:45;100331.47;;;-3.54;90.24
59767;BME280;46248;58.364;25.582;2023-02-03T04:46:07;100318.63;;;-3.63;90.56
59767;BME280;46248;58.364;25.582;2023-02-03T04:49:31;100335.69;;;-3.56;91.41
59767;BME280;46248;58.364;25.582;2023-02-03T04:52:53;100322.91;;;-3.59;91.17
59767;BME280;46248;58.364;25.582;2023-02-03T04:56:15;100328.00;;;-3.57;90.65
59767;BME280;46248;58.364;25.582;2023-02-03T04:59:36;100328.03;;;-3.56;90.13
59767;BME280;46248;58.364;25.582;2023-02-03T05:02:59;100302.38;;;-3.66;90.43
59767;BME280;46248;58.364;25.582;2023-02-03T05:06:24;100304.97;;;-3.65;90.09
59767;BME280;46248;58.364;25.582;2023-02-03T05:09:46;100316.06;;;-3.61;89.18
59767;BME280;46248;58.364;25.582;2023-02-03T05:13:07;100322.03;;;-3.59;89.52
59767;BME280;46248;58.364;25.582;2023-02-03T05:16:29;100316.91;;;-3.62;89.91
59767;BME280;46248;58.364;25.582;2023-02-03T05:19:51;100324.59;;;-3.59;90.33
59767;BME280;46248;58.364;25.582;2023-02-03T05:23:15;100330.56;;;-3.62;90.12
59767;BME280;46248;58.364;25.582;2023-02-03T05:26:37;100323.75;;;-3.66;90.23
59767;BME280;46248;58.364;25.582;2023-02-03T05:29:59;100324.56;;;-3.69;89.70
59767;BME280;46248;58.364;25.582;2023-02-03T05:33:21;100316.06;;;-3.69;89.66
59767;BME280;46248;58.364;25.582;2023-02-03T05:36:43;100326.25;;;-3.71;88.83
59767;BME280;46248;58.364;25.582;2023-02-03T05:40:07;100314.34;;;-3.72;88.27
59767;BME280;46248;58.364;25.582;2023-02-03T05:43:47;100316.88;;;-3.72;88.47
59767;BME280;46248;58.364;25.582;2023-02-03T05:47:09;100316.88;;;-3.73;88.29
59767;BME280;46248;58.364;25.582;2023-02-03T05:50:31;100324.56;;;-3.75;87.78
59767;BME280;46248;58.364;25.582;2023-02-03T05:53:56;100318.56;;;-3.75;87.92
59767;BME280;46248;58.364;25.582;2023-02-03T05:57:19;100310.88;;;-3.80;87.33
59767;BME280;46248;58.364;25.582;2023-02-03T06:00:41;100319.41;;;-3.76;86.61
59767;BME280;46248;58.364;25.582;2023-02-03T06:04:04;100319.41;;;-3.81;86.33
59767;BME280;46248;58.364;25.582;2023-02-03T06:07:26;100327.06;;;-3.84;86.69
59767;BME280;46248;58.364;25.582;2023-02-03T06:10:48;100318.53;;;-3.83;86.36
59767;BME280;46248;58.364;25.582;2023-02-03T06:14:10;100315.97;;;-3.84;84.52
59767;BME280;46248;58.364;25.582;2023-02-03T06:17:32;100315.13;;;-3.86;85.74
59767;BME280;46248;58.364;25.582;2023-02-03T06:20:55;100320.25;;;-3.83;85.48
59767;BME280;46248;58.364;25.582;2023-02-03T06:24:16;100327.94;;;-3.80;85.31
59767;BME280;46248;58.364;25.582;2023-02-03T06:27:39;100322.81;;;-3.80;84.86
59767;BME280;46248;58.364;25.582;2023-02-03T06:31:03;100327.91;;;-3.82;83.54
59767;BME280;46248;58.364;25.582;2023-02-03T06:34:24;100319.38;;;-3.87;82.58
59767;BME280;46248;58.364;25.582;2023-02-03T06:37:46;100329.63;;;-3.82;83.06
59767;BME280;46248;58.364;25.582;2023-02-03T06:41:08;100322.78;;;-3.93;82.26
59767;BME280;46248;58.364;25.582;2023-02-03T06:44:29;100326.22;;;-3.86;83.20
59767;BME280;46248;58.364;25.582;2023-02-03T06:47:53;100333.03;;;-3.85;82.70
59767;BME280;46248;58.364;25.582;2023-02-03T06:51:15;100336.44;;;-3.86;82.57
59767;BME280;46248;58.364;25.582;2023-02-03T06:54:36;100334.75;;;-3.81;83.57
59767;BME280;46248;58.364;25.582;2023-02-03T06:57:58;100332.19;;;-3.84;82.40
59767;BME280;46248;58.364;25.582;2023-02-03T07:01:20;100335.59;;;-3.79;83.16
59767;BME280;46248;58.364;25.582;2023-02-03T07:04:44;100336.47;;;-3.77;82.23
59767;BME280;46248;58.364;25.582;2023-02-03T07:08:06;100335.59;;;-3.79;82.56
59767;BME280;46248;58.364;25.582;2023-02-03T07:11:28;100335.63;;;-3.76;81.12
59767;BME280;46248;58.364;25.582;2023-02-03T07:14:51;100333.91;;;-3.77;81.71
59767;BME280;46248;58.364;25.582;2023-02-03T07:18:12;100327.13;;;-3.72;81.85
59767;BME280;46248;58.364;25.582;2023-02-03T07:21:56;100336.50;;;-3.71;79.50
59767;BME280;46248;58.364;25.582;2023-02-03T07:25:18;100339.09;;;-3.66;80.34
59767;BME280;46248;58.364;25.582;2023-02-03T07:28:42;100339.94;;;-3.62;79.73
59767;BME280;46248;58.364;25.582;2023-02-03T07:32:04;100349.34;;;-3.58;81.19
59767;BME280;46248;58.364;25.582;2023-02-03T07:35:26;100343.34;;;-3.57;80.85
59767;BME280;46248;58.364;25.582;2023-02-03T07:38:49;100333.13;;;-3.59;81.91
59767;BME280;46248;58.364;25.582;2023-02-03T07:42:11;100334.84;;;-3.59;82.22
59767;BME280;46248;58.364;25.582;2023-02-03T07:45:33;100337.41;;;-3.59;82.35
59767;BME280;46248;58.364;25.582;2023-02-03T07:48:55;100339.94;;;-3.61;82.34
59767;BME280;46248;58.364;25.582;2023-02-03T07:52:17;100342.53;;;-3.59;83.06
59767;BME280;46248;58.364;25.582;2023-02-03T07:55:42;100336.56;;;-3.60;83.82
59767;BME280;46248;58.364;25.582;2023-02-03T07:59:04;100339.97;;;-3.56;84.59
59767;BME280;46248;58.364;25.582;2023-02-03T08:02:26;100332.28;;;-3.55;85.52
59767;BME280;46248;58.364;25.582;2023-02-03T08:05:48;100333.16;;;-3.53;86.23
59767;BME280;46248;58.364;25.582;2023-02-03T08:09:10;100326.34;;;-3.51;86.25
59767;BME280;46248;58.364;25.582;2023-02-03T08:12:33;100332.31;;;-3.50;86.43
59767;BME280;46248;58.364;25.582;2023-02-03T08:15:55;100337.44;;;-3.46;86.92
59767;BME280;46248;58.364;25.582;2023-02-03T08:19:18;100332.34;;;-3.44;86.95
59767;BME280;46248;58.364;25.582;2023-02-03T08:22:39;100329.78;;;-3.41;87.75
59767;BME280;46248;58.364;25.582;2023-02-03T08:26:01;100333.22;;;-3.36;86.67
59767;BME280;46248;58.364;25.582;2023-02-03T08:29:25;100332.34;;;-3.33;86.59
59767;BME280;46248;58.364;25.582;2023-02-03T08:32:47;100328.09;;;-3.33;85.80
59767;BME280;46248;58.364;25.582;2023-02-03T08:36:14;100334.09;;;-3.23;85.41
59767;BME280;46248;58.364;25.582;2023-02-03T08:39:36;100333.25;;;-3.20;85.53
59767;BME280;46248;58.364;25.582;2023-02-03T08:42:58;100328.09;;;-3.19;84.13
59767;BME280;46248;58.364;25.582;2023-02-03T08:46:22;100339.22;;;-3.20;83.77
59767;BME280;46248;58.364;25.582;2023-02-03T08:49:44;100340.94;;;-3.20;83.67
59767;BME280;46248;58.364;25.582;2023-02-03T08:53:06;100326.41;;;-3.20;83.71
59767;BME280;46248;58.364;25.582;2023-02-03T08:56:28;100323.84;;;-3.18;84.10
59767;BME280;46248;58.364;25.582;2023-02-03T08:59:50;100331.53;;;-3.11;83.15
59767;BME280;46248;58.364;25.582;2023-02-03T09:03:14;100333.25;;;-3.08;83.03
59767;BME280;46248;58.364;25.582;2023-02-03T09:06:36;100337.53;;;-3.04;82.97
59767;BME280;46248;58.364;25.582;2023-02-03T09:09:58;100331.56;;;-3.02;82.75
59767;BME280;46248;58.364;25.582;2023-02-03T09:13:20;100334.09;;;-2.94;82.58
59767;BME280;46248;58.364;25.582;2023-02-03T09:16:42;100338.38;;;-2.82;83.30
59767;BME280;46248;58.364;25.582;2023-02-03T09:20:07;100346.94;;;-2.72;80.56
59767;BME280;46248;58.364;25.582;2023-02-03T09:23:32;100345.25;;;-2.66;81.38
59767;BME280;46248;58.364;25.582;2023-02-03T09:26:55;100346.94;;;-2.48;82.12
59767;BME280;46248;58.364;25.582;2023-02-03T09:30:18;100346.03;;;-2.30;79.99
59767;BME280;46248;58.364;25.582;2023-02-03T09:33:40;100346.88;;;-2.19;79.89
59767;BME280;46248;58.364;25.582;2023-02-03T09:37:04;100341.78;;;-2.20;78.48
59767;BME280;46248;58.364;25.582;2023-02-03T09:40:29;100340.03;;;-2.17;78.30
59767;BME280;46248;58.364;25.582;2023-02-03T09:43:58;100348.59;;;-2.05;76.73
59767;BME280;46248;58.364;25.582;2023-02-03T09:47:25;100345.13;;;-2.01;77.53
59767;BME280;46248;58.364;25.582;2023-02-03T09:50:48;100343.41;;;-1.95;77.35
59767;BME280;46248;58.364;25.582;2023-02-03T09:54:16;100346.81;;;-1.97;72.44
59767;BME280;46248;58.364;25.582;2023-02-03T09:57:44;100350.28;;;-2.04;73.09
59767;BME280;46248;58.364;25.582;2023-02-03T10:01:08;100343.47;;;-2.09;73.12
59767;BME280;46248;58.364;25.582;2023-02-03T10:04:37;100350.28;;;-2.12;75.70
59767;BME280;46248;58.364;25.582;2023-02-03T10:08:06;100335.78;;;-2.19;73.74
59767;BME280;46248;58.364;25.582;2023-02-03T10:11:52;100346.88;;;-2.11;74.12
59767;BME280;46248;58.364;25.582;2023-02-03T10:15:43;100338.31;;;-2.13;75.49
59767;BME280;46248;58.364;25.582;2023-02-03T10:19:14;100340.91;;;-2.12;74.24
59767;BME280;46248;58.364;25.582;2023-02-03T10:22:43;100328.94;;;-2.17;74.88
59767;BME280;46248;58.364;25.582;2023-02-03T10:26:08;100330.63;;;-2.13;75.42
59767;BME280;46248;58.364;25.582;2023-02-03T10:29:38;100322.97;;;-2.21;74.36
59767;BME280;46248;58.364;25.582;2023-02-03T10:33:09;100334.88;;;-2.12;74.92
59767;BME280;46248;58.364;25.582;2023-02-03T10:36:38;100334.06;;;-2.11;74.96
59767;BME280;46248;58.364;25.582;2023-02-03T10:40:04;100334.03;;;-2.05;73.82
59767;BME280;46248;58.364;25.582;2023-02-03T10:43:28;100337.44;;;-2.00;74.69
59767;BME280;46248;58.364;25.582;2023-02-03T10:47:33;100334.84;;;-1.92;75.48
59767;BME280;46248;58.364;25.582;2023-02-03T10:50:56;100328.84;;;-1.90;74.50
59767;BME280;46248;58.364;25.582;2023-02-03T10:54:27;100325.44;;;-1.87;73.92
59767;BME280;46248;58.364;25.582;2023-02-03T10:57:50;100325.44;;;-1.87;74.82
59767;BME280;46248;58.364;25.582;2023-02-03T11:01:14;100328.84;;;-1.87;76.13
59767;BME280;46248;58.364;25.582;2023-02-03T11:04:38;100335.66;;;-1.79;75.81
59767;BME280;46248;58.364;25.582;2023-02-03T11:08:01;100321.13;;;-1.83;76.20
59767;BME280;46248;58.364;25.582;2023-02-03T11:11:25;100323.69;;;-1.80;76.69
59767;BME280;46248;58.364;25.582;2023-02-03T11:14:48;100313.41;;;-1.82;74.95
59767;BME280;46248;58.364;25.582;2023-02-03T11:18:45;100297.22;;;-1.90;74.38
59767;BME280;46248;58.364;25.582;2023-02-03T11:22:10;100314.28;;;-1.88;76.59
59767;BME280;46248;58.364;25.582;2023-02-03T11:25:32;100302.34;;;-1.95;75.67
59767;BME280;46248;58.364;25.582;2023-02-03T11:28:56;100317.75;;;-1.90;75.80
59767;BME280;46248;58.364;25.582;2023-02-03T11:32:22;100313.44;;;-1.91;76.51
59767;BME280;46248;58.364;25.582;2023-02-03T11:35:54;100299.78;;;-1.92;77.07
59767;BME280;46248;58.364;25.582;2023-02-03T11:39:23;100298.91;;;-1.91;77.77
59767;BME280;46248;58.364;25.582;2023-02-03T11:42:59;100308.31;;;-1.90;76.23
59767;BME280;46248;58.364;25.582;2023-02-03T11:46:21;100296.34;;;-1.91;78.28
59767;BME280;46248;58.364;25.582;2023-02-03T11:50:08;100305.72;;;-1.83;76.05
59767;BME280;46248;58.364;25.582;2023-02-03T11:53:50;100300.59;;;-1.88;76.91
59767;BME280;46248;58.364;25.582;2023-02-03T11:57:27;100293.78;;;-1.92;75.89
59767;BME280;46248;58.364;25.582;2023-02-03T12:01:02;100300.63;;;-1.91;75.90
59767;BME280;46248;58.364;25.582;2023-02-03T12:04:38;100306.63;;;-1.95;75.30
59767;BME280;46248;58.364;25.582;2023-02-03T12:08:12;100307.50;;;-1.96;75.47
59767;BME280;46248;58.364;25.582;2023-02-03T12:11:57;100298.09;;;-1.99;75.61
59767;BME280;46248;58.364;25.582;2023-02-03T12:15:34;100311.75;;;-1.95;76.54
59767;BME280;46248;58.364;25.582;2023-02-03T12:19:08;100318.59;;;-1.90;76.92
59767;BME280;46248;58.364;25.582;2023-02-03T12:22:41;100320.31;;;-1.90;77.82
59767;BME280;46248;58.364;25.582;2023-02-03T12:26:16;100314.28;;;-1.88;78.68
59767;BME280;46248;58.364;25.582;2023-02-03T12:29:42;100316.00;;;-1.87;77.93
59767;BME280;46248;58.364;25.582;2023-02-03T12:33:14;100292.09;;;-1.98;78.17
59767;BME280;46248;58.364;25.582;2023-02-03T12:36:41;100314.31;;;-1.89;78.59
59767;BME280;46248;58.364;25.582;2023-02-03T12:40:12;100312.59;;;-1.89;79.13
59767;BME280;46248;58.364;25.582;2023-02-03T12:43:39;100314.28;;;-1.88;79.37
59767;BME280;46248;58.364;25.582;2023-02-03T12:47:06;100300.63;;;-1.91;79.19
59767;BME280;46248;58.364;25.582;2023-02-03T12:50:37;100313.47;;;-1.94;80.74
59767;BME280;46248;58.364;25.582;2023-02-03T12:54:05;100310.06;;;-2.01;79.59
59767;BME280;46248;58.364;25.582;2023-02-03T12:57:31;100313.50;;;-1.99;80.06
59767;BME280;46248;58.364;25.582;2023-02-03T13:00:58;100308.38;;;-1.99;80.18
59767;BME280;46248;58.364;25.582;2023-02-03T13:04:27;100307.47;;;-1.95;79.17
59767;BME280;46248;58.364;25.582;2023-02-03T13:07:55;100315.19;;;-1.93;79.39
59767;BME280;46248;58.364;25.582;2023-02-03T13:11:23;100321.16;;;-1.94;79.48
59767;BME280;46248;58.364;25.582;2023-02-03T13:14:50;100317.75;;;-1.96;78.93
59767;BME280;46248;58.364;25.582;2023-02-03T13:18:19;100316.91;;;-2.03;78.12
59767;BME280;46248;58.364;25.582;2023-02-03T13:21:47;100328.03;;;-2.01;78.94
59767;BME280;46248;58.364;25.582;2023-02-03T13:25:16;100340.03;;;-2.04;78.79
59767;BME280;46248;58.364;25.582;2023-02-03T13:28:53;100334.88;;;-2.04;79.42
59767;BME280;46248;58.364;25.582;2023-02-03T13:32:28;100329.75;;;-2.12;78.91
59767;BME280;46248;58.364;25.582;2023-02-03T13:36:02;100330.63;;;-2.13;79.16
59767;BME280;46248;58.364;25.582;2023-02-03T13:39:42;100326.38;;;-2.17;78.00
59767;BME280;46248;58.364;25.582;2023-02-03T13:43:13;100340.91;;;-2.18;78.91
59767;BME280;46248;58.364;25.582;2023-02-03T13:46:56;100336.66;;;-2.23;78.46
59767;BME280;46248;58.364;25.582;2023-02-03T13:50:22;100333.22;;;-2.27;79.54
59767;BME280;46248;58.364;25.582;2023-02-03T13:53:46;100350.31;;;-2.24;80.65
59767;BME280;46248;58.364;25.582;2023-02-03T13:57:19;100358.88;;;-2.30;79.18
59767;BME280;46248;58.364;25.582;2023-02-03T14:01:05;100360.59;;;-2.29;80.74
59767;BME280;46248;58.364;25.582;2023-02-03T14:04:54;100361.44;;;-2.38;80.76
59767;BME280;46248;58.364;25.582;2023-02-03T14:08:47;100359.75;;;-2.39;81.53
59767;BME280;46248;58.364;25.582;2023-02-03T14:12:30;100364.00;;;-2.38;82.72
59767;BME280;46248;58.364;25.582;2023-02-03T14:16:20;100368.31;;;-2.41;82.84
59767;BME280;46248;58.364;25.582;2023-02-03T14:19:55;100376.84;;;-2.38;82.15
59767;BME280;46248;58.364;25.582;2023-02-03T14:23:36;100356.31;;;-2.48;83.10
59767;BME280;46248;58.364;25.582;2023-02-03T14:27:01;100366.59;;;-2.44;83.29
59767;BME280;46248;58.364;25.582;2023-02-03T14:30:24;100366.56;;;-2.48;83.27
59767;BME280;46248;58.364;25.582;2023-02-03T14:34:04;100370.00;;;-2.56;83.80
59767;BME280;46248;58.364;25.582;2023-02-03T14:37:32;100381.09;;;-2.52;84.23
59767;BME280;46248;58.364;25.582;2023-02-03T14:40:56;100377.72;;;-2.57;84.02
59767;BME280;46248;58.364;25.582;2023-02-03T14:44:29;100385.41;;;-2.57;84.59
59767;BME280;46248;58.364;25.582;2023-02-03T14:48:09;100381.97;;;-2.62;84.93
59767;BME280;46248;58.364;25.582;2023-02-03T14:51:48;100391.38;;;-2.60;84.85
59767;BME280;46248;58.364;25.582;2023-02-03T14:55:35;100394.78;;;-2.65;85.04
59767;BME280;46248;58.364;25.582;2023-02-03T14:59:01;100390.50;;;-2.69;85.58
59767;BME280;46248;58.364;25.582;2023-02-03T15:02:26;100373.44;;;-2.84;85.57
59767;BME280;46248;58.364;25.582;2023-02-03T15:05:53;100408.44;;;-2.69;85.67
59767;BME280;46248;58.364;25.582;2023-02-03T15:09:22;100411.88;;;-2.72;86.09
59767;BME280;46248;58.364;25.582;2023-02-03T15:12:47;100416.97;;;-2.73;85.85
59767;BME280;46248;58.364;25.582;2023-02-03T15:16:14;100415.28;;;-2.76;86.27
59767;BME280;46248;58.364;25.582;2023-02-03T15:19:40;100414.44;;;-2.81;86.72
59767;BME280;46248;58.364;25.582;2023-02-03T15:23:17;100414.44;;;-2.81;86.39
59767;BME280;46248;58.364;25.582;2023-02-03T15:26:46;100425.53;;;-2.78;86.59
59767;BME280;46248;58.364;25.582;2023-02-03T15:30:14;100421.25;;;-2.79;87.06
59767;BME280;46248;58.364;25.582;2023-02-03T15:33:37;100436.63;;;-2.79;87.18
59767;BME280;46248;58.364;25.582;2023-02-03T15:37:01;100425.53;;;-2.81;87.31
59767;BME280;46248;58.364;25.582;2023-02-03T15:40:34;100438.34;;;-2.84;87.62
59767;BME280;46248;58.364;25.582;2023-02-03T15:44:03;100436.59;;;-2.88;88.00
59767;BME280;46248;58.364;25.582;2023-02-03T15:47:31;100446.00;;;-2.88;88.32
59767;BME280;46248;58.364;25.582;2023-02-03T15:50:56;100444.28;;;-2.91;88.38
59767;BME280;46248;58.364;25.582;2023-02-03T15:54:21;100443.41;;;-2.94;88.43
59767;BME280;46248;58.364;25.582;2023-02-03T15:57:49;100438.31;;;-2.99;88.56
59767;BME280;46248;58.364;25.582;2023-02-03T16:01:14;100451.13;;;-2.93;88.63
59767;BME280;46248;58.364;25.582;2023-02-03T16:04:39;100451.97;;;-2.91;88.38
59767;BME280;46248;58.364;25.582;2023-02-03T16:08:27;100453.69;;;-2.90;88.50
59767;BME280;46248;58.364;25.582;2023-02-03T16:12:16;100455.41;;;-2.90;88.34
59767;BME280;46248;58.364;25.582;2023-02-03T16:15:39;100451.94;;;-2.97;88.49
59767;BME280;46248;58.364;25.582;2023-02-03T16:19:04;100467.31;;;-2.94;88.90
59767;BME280;46248;58.364;25.582;2023-02-03T16:22:28;100475.88;;;-2.95;89.17
59767;BME280;46248;58.364;25.582;2023-02-03T16:26:02;100475.88;;;-2.95;89.46
59767;BME280;46248;58.364;25.582;2023-02-03T16:29:28;100477.56;;;-2.97;89.64
59767;BME280;46248;58.364;25.582;2023-02-03T16:33:15;100464.72;;;-3.06;90.13
59767;BME280;46248;58.364;25.582;2023-02-03T16:36:57;100478.41;;;-3.03;90.69
59767;BME280;46248;58.364;25.582;2023-02-03T16:40:37;100480.97;;;-3.04;91.08
59767;BME280;46248;58.364;25.582;2023-02-03T16:44:17;100485.22;;;-3.06;91.14
59767;BME280;46248;58.364;25.582;2023-02-03T16:47:57;100483.50;;;-3.09;91.15
59767;BME280;46248;58.364;25.582;2023-02-03T16:51:38;100474.09;;;-3.17;91.00
59767;BME280;46248;58.364;25.582;2023-02-03T16:55:02;100481.78;;;-3.13;91.23
59767;BME280;46248;58.364;25.582;2023-02-03T16:58:25;100477.50;;;-3.15;91.02
59767;BME280;46248;58.364;25.582;2023-02-03T17:01:48;100488.59;;;-3.12;91.21
59767;BME280;46248;58.364;25.582;2023-02-03T17:05:10;100493.72;;;-3.15;91.26
59767;BME280;46248;58.364;25.582;2023-02-03T17:08:32;100497.16;;;-3.14;91.35
59767;BME280;46248;58.364;25.582;2023-02-03T17:11:56;100492.03;;;-3.17;91.78
59767;BME280;46248;58.364;25.582;2023-02-03T17:15:18;100497.13;;;-3.19;91.85
59767;BME280;46248;58.364;25.582;2023-02-03T17:18:40;100500.53;;;-3.22;92.16
59767;BME280;46248;58.364;25.582;2023-02-03T17:22:02;100491.09;;;-3.32;92.19
59767;BME280;46248;58.364;25.582;2023-02-03T17:25:24;100501.31;;;-3.33;92.29
59767;BME280;46248;58.364;25.582;2023-02-03T17:28:48;100521.00;;;-3.29;92.43
59767;BME280;46248;58.364;25.582;2023-02-03T17:32:10;100525.25;;;-3.33;91.98
59767;BME280;46248;58.364;25.582;2023-02-03T17:35:35;100526.06;;;-3.35;91.80
59767;BME280;46248;58.364;25.582;2023-02-03T17:38:58;100523.50;;;-3.34;91.92
59767;BME280;46248;58.364;25.582;2023-02-03T17:42:39;100531.16;;;-3.40;91.11
59767;BME280;46248;58.364;25.582;2023-02-03T17:46:21;100529.44;;;-3.39;90.85
59767;BME280;46248;58.364;25.582;2023-02-03T17:50:01;100534.56;;;-3.42;91.17